METAR Formatted Surface Weather Observation
Issued by NWS

Home | Current Version | Previous Version | Text Only | Print | Product List | Glossary On
Versions: 1 2 3 4 5 6 7 8 9 10 11 12 13 14 15 16 17 18 19 20 21 22 23 24 25 26 27 28 29 30 31 32 33
000
SAUS44 KBMX 121154
MTRLOR
METAR KLOR 121153Z AUTO 09003KT 1/2SM FG VV003 23/22 A3013 RMK AO2
SLP198 70008 T02330222 10239 20222 53013 TSNO $



USA.gov is the U.S. government's official web portal to all federal, state and local government web resources and services.